sensor_id;sensor_type;location;lat;lon;timestamp;pressure;altitude;pressure_sealevel;temperature;humidity
52983;BME280;48698;45.736;13.926;2023-04-30T00:04:23;97291.19;;;8.78;100.00
52983;BME280;48698;45.736;13.926;2023-04-30T00:09:35;97282.50;;;8.20;100.00
52983;BME280;48698;45.736;13.926;2023-04-30T00:14:38;97336.09;;;8.79;100.00
52983;BME280;48698;45.736;13.926;2023-04-30T00:19:41;97242.91;;;8.00;100.00
52983;BME280;48698;45.736;13.926;2023-04-30T00:24:44;97329.69;;;8.66;100.00
52983;BME280;48698;45.736;13.926;2023-04-30T00:29:46;97487.22;;;9.31;100.00
52983;BME280;48698;45.736;13.926;2023-04-30T00:34:49;97492.91;;;9.94;100.00
52983;BME280;48698;45.736;13.926;2023-04-30T00:39:59;97593.41;;;10.68;100.00
52983;BME280;48698;45.736;13.926;2023-04-30T00:45:02;97599.66;;;10.67;100.00
52983;BME280;48698;45.736;13.926;2023-04-30T00:50:05;97450.44;;;9.59;100.00
52983;BME280;48698;45.736;13.926;2023-04-30T00:55:09;97273.16;;;8.67;100.00
52983;BME280;48698;45.736;13.926;2023-04-30T01:00:13;97311.97;;;8.50;100.00
52983;BME280;48698;45.736;13.926;2023-04-30T01:05:16;97366.03;;;8.99;100.00
52983;BME280;48698;45.736;13.926;2023-04-30T01:10:21;97438.03;;;9.60;100.00
52983;BME280;48698;45.736;13.926;2023-04-30T01:15:37;97629.03;;;11.14;100.00
52983;BME280;48698;45.736;13.926;2023-04-30T01:20:49;97324.13;;;9.07;100.00
52983;BME280;48698;45.736;13.926;2023-04-30T01:31:18;97566.75;;;10.37;100.00
52983;BME280;48698;45.736;13.926;2023-04-30T01:42:06;97604.91;;;10.52;100.00
52983;BME280;48698;45.736;13.926;2023-04-30T01:52:44;97597.16;;;10.64;100.00
52983;BME280;48698;45.736;13.926;2023-04-30T01:57:56;97600.13;;;10.75;100.00
52983;BME280;48698;45.736;13.926;2023-04-30T02:03:03;97549.13;;;9.83;100.00
52983;BME280;48698;45.736;13.926;2023-04-30T02:08:05;97618.13;;;10.36;100.00
52983;BME280;48698;45.736;13.926;2023-04-30T02:13:18;97562.84;;;9.91;100.00
52983;BME280;48698;45.736;13.926;2023-04-30T02:18:30;97475.06;;;9.61;100.00
52983;BME280;48698;45.736;13.926;2023-04-30T02:23:43;97270.38;;;8.35;100.00
52983;BME280;48698;45.736;13.926;2023-04-30T02:28:48;97547.50;;;9.80;100.00
52983;BME280;48698;45.736;13.926;2023-04-30T02:33:51;97537.03;;;9.77;100.00
52983;BME280;48698;45.736;13.926;2023-04-30T02:39:04;97578.19;;;9.67;100.00
52983;BME280;48698;45.736;13.926;2023-04-30T02:44:06;97543.75;;;9.49;100.00
52983;BME280;48698;45.736;13.926;2023-04-30T02:49:09;97453.59;;;8.96;100.00
52983;BME280;48698;45.736;13.926;2023-04-30T02:54:12;97501.22;;;9.33;100.00
52983;BME280;48698;45.736;13.926;2023-04-30T02:59:15;97545.59;;;9.65;100.00
52983;BME280;48698;45.736;13.926;2023-04-30T03:04:18;97563.94;;;9.70;100.00
52983;BME280;48698;45.736;13.926;2023-04-30T03:09:20;97252.78;;;7.77;100.00
52983;BME280;48698;45.736;13.926;2023-04-30T03:14:23;97208.56;;;7.23;100.00
52983;BME280;48698;45.736;13.926;2023-04-30T03:19:25;97535.31;;;9.22;100.00
52983;BME280;48698;45.736;13.926;2023-04-30T03:24:28;97573.53;;;9.72;100.00
52983;BME280;48698;45.736;13.926;2023-04-30T03:29:32;97480.53;;;9.22;100.00
52983;BME280;48698;45.736;13.926;2023-04-30T03:34:35;97373.19;;;8.97;100.00
52983;BME280;48698;45.736;13.926;2023-04-30T03:39:38;97300.47;;;8.32;100.00
52983;BME280;48698;45.736;13.926;2023-04-30T03:44:40;97313.38;;;8.57;100.00
52983;BME280;48698;45.736;13.926;2023-04-30T03:49:53;97580.75;;;10.05;100.00
52983;BME280;48698;45.736;13.926;2023-04-30T03:54:57;97525.56;;;9.77;100.00
52983;BME280;48698;45.736;13.926;2023-04-30T04:00:00;97575.25;;;9.73;100.00
52983;BME280;48698;45.736;13.926;2023-04-30T04:05:03;97594.38;;;10.50;100.00
52983;BME280;48698;45.736;13.926;2023-04-30T04:10:07;97467.44;;;10.07;100.00
52983;BME280;48698;45.736;13.926;2023-04-30T04:15:29;97583.88;;;10.64;100.00
52983;BME280;48698;45.736;13.926;2023-04-30T04:20:32;97598.44;;;10.23;100.00
52983;BME280;48698;45.736;13.926;2023-04-30T04:25:35;97538.38;;;9.86;100.00
52983;BME280;48698;45.736;13.926;2023-04-30T04:30:48;97545.00;;;9.77;100.00
52983;BME280;48698;45.736;13.926;2023-04-30T04:35:50;97479.22;;;9.14;100.00
52983;BME280;48698;45.736;13.926;2023-04-30T04:40:56;97623.75;;;9.94;100.00
52983;BME280;48698;45.736;13.926;2023-04-30T04:45:59;97646.03;;;9.90;100.00
52983;BME280;48698;45.736;13.926;2023-04-30T04:51:02;97621.78;;;9.98;100.00
52983;BME280;48698;45.736;13.926;2023-04-30T04:56:05;97324.91;;;8.18;100.00
52983;BME280;48698;45.736;13.926;2023-04-30T05:01:08;97599.00;;;9.94;100.00
52983;BME280;48698;45.736;13.926;2023-04-30T05:06:11;97561.72;;;9.97;100.00
52983;BME280;48698;45.736;13.926;2023-04-30T05:11:14;97534.56;;;10.09;100.00
52983;BME280;48698;45.736;13.926;2023-04-30T05:16:18;97441.69;;;9.92;100.00
52983;BME280;48698;45.736;13.926;2023-04-30T05:21:22;97285.69;;;10.62;100.00
52983;BME280;48698;45.736;13.926;2023-04-30T05:26:27;97613.66;;;12.74;100.00
52983;BME280;48698;45.736;13.926;2023-04-30T05:31:30;97533.25;;;12.82;100.00
52983;BME280;48698;45.736;13.926;2023-04-30T05:36:33;97606.22;;;14.19;100.00
52983;BME280;48698;45.736;13.926;2023-04-30T05:41:37;97409.59;;;13.39;100.00
52983;BME280;48698;45.736;13.926;2023-04-30T05:46:41;97554.81;;;14.55;100.00
52983;BME280;48698;45.736;13.926;2023-04-30T05:51:54;97439.88;;;14.05;100.00
52983;BME280;48698;45.736;13.926;2023-04-30T05:56:56;97591.22;;;14.95;100.00
52983;BME280;48698;45.736;13.926;2023-04-30T06:01:59;97510.16;;;14.57;100.00
52983;BME280;48698;45.736;13.926;2023-04-30T06:07:02;97525.56;;;14.79;100.00
52983;BME280;48698;45.736;13.926;2023-04-30T06:12:04;97571.44;;;15.11;100.00
52983;BME280;48698;45.736;13.926;2023-04-30T06:17:07;97575.38;;;15.30;100.00
52983;BME280;48698;45.736;13.926;2023-04-30T06:22:10;97419.19;;;14.59;100.00
52983;BME280;48698;45.736;13.926;2023-04-30T06:27:13;97456.72;;;14.57;100.00
52983;BME280;48698;45.736;13.926;2023-04-30T06:32:15;97556.25;;;14.98;100.00
52983;BME280;48698;45.736;13.926;2023-04-30T06:37:18;97522.25;;;14.23;100.00
52983;BME280;48698;45.736;13.926;2023-04-30T06:42:21;97468.97;;;14.22;100.00
52983;BME280;48698;45.736;13.926;2023-04-30T06:47:24;97610.72;;;14.97;100.00
52983;BME280;48698;45.736;13.926;2023-04-30T06:52:27;97491.94;;;13.85;100.00
52983;BME280;48698;45.736;13.926;2023-04-30T06:57:30;97436.66;;;13.60;100.00
52983;BME280;48698;45.736;13.926;2023-04-30T07:02:33;97574.88;;;14.35;100.00
52983;BME280;48698;45.736;13.926;2023-04-30T07:07:45;97627.78;;;14.82;100.00
52983;BME280;48698;45.736;13.926;2023-04-30T07:12:48;97618.50;;;15.38;100.00
52983;BME280;48698;45.736;13.926;2023-04-30T07:17:51;97617.94;;;15.71;100.00
52983;BME280;48698;45.736;13.926;2023-04-30T07:22:54;97298.56;;;13.76;100.00
52983;BME280;48698;45.736;13.926;2023-04-30T07:27:57;97444.50;;;14.78;100.00
52983;BME280;48698;45.736;13.926;2023-04-30T07:33:00;97388.16;;;13.93;100.00
52983;BME280;48698;45.736;13.926;2023-04-30T07:38:03;97323.84;;;13.58;100.00
52983;BME280;48698;45.736;13.926;2023-04-30T07:43:07;97567.34;;;15.43;100.00
52983;BME280;48698;45.736;13.926;2023-04-30T07:48:09;97420.03;;;15.08;100.00
52983;BME280;48698;45.736;13.926;2023-04-30T07:53:12;97304.38;;;14.93;100.00
52983;BME280;48698;45.736;13.926;2023-04-30T07:58:25;97545.22;;;15.77;100.00
52983;BME280;48698;45.736;13.926;2023-04-30T08:03:32;97391.31;;;15.59;100.00
52983;BME280;48698;45.736;13.926;2023-04-30T08:08:36;97604.94;;;17.65;100.00
52983;BME280;48698;45.736;13.926;2023-04-30T08:13:40;97567.72;;;18.14;100.00
52983;BME280;48698;45.736;13.926;2023-04-30T08:18:44;97613.28;;;18.16;100.00
52983;BME280;48698;45.736;13.926;2023-04-30T08:23:49;97586.69;;;18.01;100.00
52983;BME280;48698;45.736;13.926;2023-04-30T08:28:52;97575.25;;;18.63;100.00
52983;BME280;48698;45.736;13.926;2023-04-30T08:33:56;97490.91;;;18.12;100.00
52983;BME280;48698;45.736;13.926;2023-04-30T08:38:59;97405.56;;;17.18;100.00
52983;BME280;48698;45.736;13.926;2023-04-30T08:44:04;97572.88;;;18.38;100.00
52983;BME280;48698;45.736;13.926;2023-04-30T08:49:09;97550.19;;;19.04;100.00
52983;BME280;48698;45.736;13.926;2023-04-30T08:54:13;97605.31;;;19.09;100.00
52983;BME280;48698;45.736;13.926;2023-04-30T08:59:17;97381.16;;;17.96;100.00
52983;BME280;48698;45.736;13.926;2023-04-30T09:04:20;97565.00;;;19.80;100.00
52983;BME280;48698;45.736;13.926;2023-04-30T09:09:29;97611.88;;;20.86;100.00
52983;BME280;48698;45.736;13.926;2023-04-30T09:14:33;97600.25;;;19.16;100.00
52983;BME280;48698;45.736;13.926;2023-04-30T09:19:42;97383.94;;;18.77;100.00
52983;BME280;48698;45.736;13.926;2023-04-30T09:24:47;97556.31;;;18.85;100.00
52983;BME280;48698;45.736;13.926;2023-04-30T09:29:51;97329.13;;;17.76;100.00
52983;BME280;48698;45.736;13.926;2023-04-30T09:35:05;97611.63;;;19.61;100.00
52983;BME280;48698;45.736;13.926;2023-04-30T09:40:08;97501.31;;;19.69;100.00
52983;BME280;48698;45.736;13.926;2023-04-30T09:45:13;97613.56;;;19.89;100.00
52983;BME280;48698;45.736;13.926;2023-04-30T09:50:17;97501.72;;;18.74;100.00
52983;BME280;48698;45.736;13.926;2023-04-30T09:55:21;97611.47;;;19.63;100.00
52983;BME280;48698;45.736;13.926;2023-04-30T10:00:23;97540.13;;;19.57;100.00
52983;BME280;48698;45.736;13.926;2023-04-30T10:05:26;97586.75;;;19.48;100.00
52983;BME280;48698;45.736;13.926;2023-04-30T10:10:30;97611.88;;;19.88;100.00
52983;BME280;48698;45.736;13.926;2023-04-30T10:15:38;97615.28;;;19.90;100.00
52983;BME280;48698;45.736;13.926;2023-04-30T10:20:41;97424.19;;;18.58;100.00
52983;BME280;48698;45.736;13.926;2023-04-30T10:25:44;97497.56;;;20.48;100.00
52983;BME280;48698;45.736;13.926;2023-04-30T10:30:57;97597.56;;;20.56;99.59
52983;BME280;48698;45.736;13.926;2023-04-30T10:36:09;97603.28;;;20.13;100.00
52983;BME280;48698;45.736;13.926;2023-04-30T10:41:14;97591.13;;;21.05;98.38
52983;BME280;48698;45.736;13.926;2023-04-30T10:46:29;97593.03;;;21.88;91.82
52983;BME280;48698;45.736;13.926;2023-04-30T10:51:46;97594.63;;;21.54;93.43
52983;BME280;48698;45.736;13.926;2023-04-30T10:57:11;97569.78;;;21.41;86.46
52983;BME280;48698;45.736;13.926;2023-04-30T11:02:15;97405.81;;;21.86;84.60
52983;BME280;48698;45.736;13.926;2023-04-30T11:07:24;97575.56;;;21.46;83.97
52983;BME280;48698;45.736;13.926;2023-04-30T11:12:28;97575.09;;;20.66;85.13
52983;BME280;48698;45.736;13.926;2023-04-30T11:17:31;97452.69;;;19.61;89.10
52983;BME280;48698;45.736;13.926;2023-04-30T11:22:35;97334.41;;;19.39;90.12
52983;BME280;48698;45.736;13.926;2023-04-30T11:27:42;97420.78;;;19.66;86.75
52983;BME280;48698;45.736;13.926;2023-04-30T11:32:48;97523.66;;;20.96;88.46
52983;BME280;48698;45.736;13.926;2023-04-30T11:37:54;97547.19;;;21.32;87.98
52983;BME280;48698;45.736;13.926;2023-04-30T11:42:58;97410.44;;;20.38;90.58
52983;BME280;48698;45.736;13.926;2023-04-30T11:48:01;97331.00;;;19.56;83.55
52983;BME280;48698;45.736;13.926;2023-04-30T11:53:14;97478.88;;;21.12;83.90
52983;BME280;48698;45.736;13.926;2023-04-30T11:58:18;97562.19;;;21.54;82.89
52983;BME280;48698;45.736;13.926;2023-04-30T12:03:20;97428.00;;;20.52;84.46
52983;BME280;48698;45.736;13.926;2023-04-30T12:08:24;97523.41;;;21.73;84.68
52983;BME280;48698;45.736;13.926;2023-04-30T12:13:30;97359.09;;;20.11;79.19
52983;BME280;48698;45.736;13.926;2023-04-30T12:18:33;97453.72;;;20.56;80.52
52983;BME280;48698;45.736;13.926;2023-04-30T12:23:36;97503.13;;;20.47;83.26
52983;BME280;48698;45.736;13.926;2023-04-30T12:28:39;97528.19;;;20.95;83.55
52983;BME280;48698;45.736;13.926;2023-04-30T12:33:42;97215.19;;;19.18;81.60
52983;BME280;48698;45.736;13.926;2023-04-30T12:38:45;97460.28;;;21.09;77.99
52983;BME280;48698;45.736;13.926;2023-04-30T12:43:48;97351.53;;;20.43;76.33
52983;BME280;48698;45.736;13.926;2023-04-30T12:49:01;97470.94;;;21.11;77.34
52983;BME280;48698;45.736;13.926;2023-04-30T12:54:04;97464.53;;;21.02;76.50
52983;BME280;48698;45.736;13.926;2023-04-30T12:59:14;97528.91;;;21.53;76.59
52983;BME280;48698;45.736;13.926;2023-04-30T13:04:17;97225.97;;;19.18;74.53
52983;BME280;48698;45.736;13.926;2023-04-30T13:09:20;97446.44;;;20.66;75.67
52983;BME280;48698;45.736;13.926;2023-04-30T13:14:23;97217.59;;;19.40;74.45
52983;BME280;48698;45.736;13.926;2023-04-30T13:19:26;97348.13;;;20.22;75.87
52983;BME280;48698;45.736;13.926;2023-04-30T13:24:29;97506.53;;;21.34;74.39
52983;BME280;48698;45.736;13.926;2023-04-30T13:29:42;97501.34;;;21.50;77.64
52983;BME280;48698;45.736;13.926;2023-04-30T13:34:45;97464.41;;;21.41;79.36
52983;BME280;48698;45.736;13.926;2023-04-30T13:39:48;97481.63;;;21.85;76.79
52983;BME280;48698;45.736;13.926;2023-04-30T13:44:51;97499.44;;;21.87;73.09
52983;BME280;48698;45.736;13.926;2023-04-30T13:49:53;97441.16;;;21.30;74.07
52983;BME280;48698;45.736;13.926;2023-04-30T13:55:07;97481.06;;;20.90;78.39
52983;BME280;48698;45.736;13.926;2023-04-30T14:00:10;97320.50;;;19.72;75.45
52983;BME280;48698;45.736;13.926;2023-04-30T14:05:20;97431.47;;;20.35;76.39
52983;BME280;48698;45.736;13.926;2023-04-30T14:10:23;97491.13;;;20.97;76.97
52983;BME280;48698;45.736;13.926;2023-04-30T14:15:35;97483.31;;;20.94;74.53
52983;BME280;48698;45.736;13.926;2023-04-30T14:20:39;97488.13;;;21.10;76.90
52983;BME280;48698;45.736;13.926;2023-04-30T14:25:42;97395.31;;;20.74;76.27
52983;BME280;48698;45.736;13.926;2023-04-30T14:30:45;97378.72;;;20.96;75.87
52983;BME280;48698;45.736;13.926;2023-04-30T14:35:48;97397.56;;;21.43;76.40
52983;BME280;48698;45.736;13.926;2023-04-30T14:40:51;97440.84;;;21.78;71.22
52983;BME280;48698;45.736;13.926;2023-04-30T14:45:53;97341.44;;;20.45;75.16
52983;BME280;48698;45.736;13.926;2023-04-30T14:50:56;97335.09;;;20.74;75.57
52983;BME280;48698;45.736;13.926;2023-04-30T14:55:59;97464.56;;;21.67;71.71
52983;BME280;48698;45.736;13.926;2023-04-30T15:01:02;97349.94;;;21.42;72.61
52983;BME280;48698;45.736;13.926;2023-04-30T15:06:05;97284.09;;;20.43;71.78
52983;BME280;48698;45.736;13.926;2023-04-30T15:11:18;97396.16;;;21.39;71.60
52983;BME280;48698;45.736;13.926;2023-04-30T15:16:21;97297.38;;;21.36;72.28
52983;BME280;48698;45.736;13.926;2023-04-30T15:21:24;97201.75;;;20.94;74.56
52983;BME280;48698;45.736;13.926;2023-04-30T15:26:27;97238.59;;;20.31;70.24
52983;BME280;48698;45.736;13.926;2023-04-30T15:31:30;97424.69;;;21.69;72.33
52983;BME280;48698;45.736;13.926;2023-04-30T15:36:34;97440.97;;;21.59;72.07
52983;BME280;48698;45.736;13.926;2023-04-30T15:41:36;97329.75;;;21.19;73.29
52983;BME280;48698;45.736;13.926;2023-04-30T15:46:44;97336.44;;;20.87;73.74
52983;BME280;48698;45.736;13.926;2023-04-30T15:51:47;97158.19;;;19.70;73.82
52983;BME280;48698;45.736;13.926;2023-04-30T15:56:50;97454.75;;;21.11;73.12
52983;BME280;48698;45.736;13.926;2023-04-30T16:01:52;97222.38;;;19.84;72.75
52983;BME280;48698;45.736;13.926;2023-04-30T16:06:56;97409.72;;;20.92;73.13
52983;BME280;48698;45.736;13.926;2023-04-30T16:11:58;97258.25;;;19.94;72.26
52983;BME280;48698;45.736;13.926;2023-04-30T16:17:01;97340.25;;;20.57;74.10
52983;BME280;48698;45.736;13.926;2023-04-30T16:22:14;97452.88;;;21.39;73.27
52983;BME280;48698;45.736;13.926;2023-04-30T16:27:18;97362.66;;;20.68;74.33
52983;BME280;48698;45.736;13.926;2023-04-30T16:32:21;97455.44;;;21.03;72.40
52983;BME280;48698;45.736;13.926;2023-04-30T16:37:24;97308.13;;;20.27;72.01
52983;BME280;48698;45.736;13.926;2023-04-30T16:42:27;97421.75;;;20.71;75.01
52983;BME280;48698;45.736;13.926;2023-04-30T16:47:31;97344.50;;;20.60;72.28
52983;BME280;48698;45.736;13.926;2023-04-30T16:52:34;97474.69;;;21.55;72.73
52983;BME280;48698;45.736;13.926;2023-04-30T16:57:36;97381.47;;;20.87;73.15
52983;BME280;48698;45.736;13.926;2023-04-30T17:02:39;97158.41;;;19.01;72.56
52983;BME280;48698;45.736;13.926;2023-04-30T17:07:44;97480.84;;;20.45;74.83
52983;BME280;48698;45.736;13.926;2023-04-30T17:12:46;97486.91;;;21.32;74.54
52983;BME280;48698;45.736;13.926;2023-04-30T17:17:49;97496.22;;;21.47;73.87
52983;BME280;48698;45.736;13.926;2023-04-30T17:22:54;97437.84;;;20.43;75.28
52983;BME280;48698;45.736;13.926;2023-04-30T17:27:57;97453.38;;;19.63;76.05
52983;BME280;48698;45.736;13.926;2023-04-30T17:33:02;97385.22;;;18.83;77.77
52983;BME280;48698;45.736;13.926;2023-04-30T17:38:05;97323.56;;;18.10;79.87
52983;BME280;48698;45.736;13.926;2023-04-30T17:43:08;97455.97;;;18.12;84.61
52983;BME280;48698;45.736;13.926;2023-04-30T17:48:12;97463.44;;;17.97;87.15
52983;BME280;48698;45.736;13.926;2023-04-30T17:53:14;97530.56;;;18.19;89.67
52983;BME280;48698;45.736;13.926;2023-04-30T17:58:17;97475.41;;;17.72;93.64
52983;BME280;48698;45.736;13.926;2023-04-30T18:03:20;97505.44;;;17.44;100.00
52983;BME280;48698;45.736;13.926;2023-04-30T18:08:22;97511.06;;;17.41;100.00
52983;BME280;48698;45.736;13.926;2023-04-30T18:13:27;97539.63;;;17.20;100.00
52983;BME280;48698;45.736;13.926;2023-04-30T18:18:29;97548.09;;;16.69;100.00
52983;BME280;48698;45.736;13.926;2023-04-30T18:23:32;97418.44;;;15.89;100.00
52983;BME280;48698;45.736;13.926;2023-04-30T18:28:35;97376.84;;;15.96;100.00
52983;BME280;48698;45.736;13.926;2023-04-30T18:33:38;97535.94;;;16.98;100.00
52983;BME280;48698;45.736;13.926;2023-04-30T18:38:41;97357.88;;;15.41;100.00
52983;BME280;48698;45.736;13.926;2023-04-30T18:43:43;97431.69;;;15.80;100.00
52983;BME280;48698;45.736;13.926;2023-04-30T18:48:46;97575.13;;;16.42;100.00
52983;BME280;48698;45.736;13.926;2023-04-30T18:53:49;97286.78;;;14.29;100.00
52983;BME280;48698;45.736;13.926;2023-04-30T18:59:02;97564.94;;;15.76;100.00
52983;BME280;48698;45.736;13.926;2023-04-30T19:04:05;97455.63;;;15.34;100.00
52983;BME280;48698;45.736;13.926;2023-04-30T19:09:10;97591.59;;;16.01;100.00
52983;BME280;48698;45.736;13.926;2023-04-30T19:14:15;97532.94;;;15.62;100.00
52983;BME280;48698;45.736;13.926;2023-04-30T19:19:20;97596.09;;;16.01;100.00
52983;BME280;48698;45.736;13.926;2023-04-30T19:24:23;97420.16;;;14.70;100.00
52983;BME280;48698;45.736;13.926;2023-04-30T19:29:28;97413.91;;;14.07;100.00
52983;BME280;48698;45.736;13.926;2023-04-30T19:34:40;97508.00;;;14.49;100.00
52983;BME280;48698;45.736;13.926;2023-04-30T19:39:45;97483.72;;;14.27;100.00
52983;BME280;48698;45.736;13.926;2023-04-30T19:44:51;97632.41;;;14.93;100.00
52983;BME280;48698;45.736;13.926;2023-04-30T19:49:55;97565.72;;;14.25;100.00
52983;BME280;48698;45.736;13.926;2023-04-30T19:54:59;97539.81;;;14.01;100.00
52983;BME280;48698;45.736;13.926;2023-04-30T20:00:02;97652.53;;;14.59;100.00
52983;BME280;48698;45.736;13.926;2023-04-30T20:05:08;97633.63;;;13.82;100.00
52983;BME280;48698;45.736;13.926;2023-04-30T20:10:11;97533.28;;;13.65;100.00
52983;BME280;48698;45.736;13.926;2023-04-30T20:15:15;97618.91;;;13.89;100.00
52983;BME280;48698;45.736;13.926;2023-04-30T20:20:19;97626.50;;;13.26;100.00
52983;BME280;48698;45.736;13.926;2023-04-30T20:25:32;97662.69;;;13.16;100.00
52983;BME280;48698;45.736;13.926;2023-04-30T20:30:43;97309.59;;;11.08;100.00
52983;BME280;48698;45.736;13.926;2023-04-30T20:35:47;97314.47;;;10.85;100.00
52983;BME280;48698;45.736;13.926;2023-04-30T20:40:50;97656.41;;;13.73;100.00
52983;BME280;48698;45.736;13.926;2023-04-30T20:45:56;97647.72;;;14.25;100.00
52983;BME280;48698;45.736;13.926;2023-04-30T20:51:01;97466.31;;;13.01;100.00
52983;BME280;48698;45.736;13.926;2023-04-30T20:56:04;97417.63;;;12.84;100.00
52983;BME280;48698;45.736;13.926;2023-04-30T21:01:08;97635.09;;;13.86;100.00
52983;BME280;48698;45.736;13.926;2023-04-30T21:06:11;97385.50;;;12.59;100.00
52983;BME280;48698;45.736;13.926;2023-04-30T21:11:17;97438.75;;;12.87;100.00
52983;BME280;48698;45.736;13.926;2023-04-30T21:16:21;97662.34;;;14.32;100.00
52983;BME280;48698;45.736;13.926;2023-04-30T21:21:24;97462.41;;;13.06;100.00
52983;BME280;48698;45.736;13.926;2023-04-30T21:26:28;97649.84;;;14.46;100.00
52983;BME280;48698;45.736;13.926;2023-04-30T21:31:32;97625.59;;;14.09;100.00
52983;BME280;48698;45.736;13.926;2023-04-30T21:36:45;97351.06;;;12.14;100.00
52983;BME280;48698;45.736;13.926;2023-04-30T21:41:48;97564.00;;;13.58;100.00
52983;BME280;48698;45.736;13.926;2023-04-30T21:46:50;97378.66;;;12.41;100.00
52983;BME280;48698;45.736;13.926;2023-04-30T21:51:53;97316.19;;;12.04;100.00
52983;BME280;48698;45.736;13.926;2023-04-30T21:56:56;97674.22;;;14.28;100.00
52983;BME280;48698;45.736;13.926;2023-04-30T22:02:01;97565.34;;;13.51;100.00
52983;BME280;48698;45.736;13.926;2023-04-30T22:07:21;97476.72;;;12.91;100.00
52983;BME280;48698;45.736;13.926;2023-04-30T22:12:34;97657.09;;;14.04;100.00
52983;BME280;48698;45.736;13.926;2023-04-30T22:17:48;97650.38;;;13.84;100.00
52983;BME280;48698;45.736;13.926;2023-04-30T22:22:51;97530.13;;;13.18;100.00
52983;BME280;48698;45.736;13.926;2023-04-30T22:27:54;97603.75;;;13.49;100.00
52983;BME280;48698;45.736;13.926;2023-04-30T22:32:57;97618.03;;;13.62;100.00
52983;BME280;48698;45.736;13.926;2023-04-30T22:38:00;97497.53;;;12.56;100.00
52983;BME280;48698;45.736;13.926;2023-04-30T22:43:04;97662.00;;;13.69;100.00
52983;BME280;48698;45.736;13.926;2023-04-30T22:48:07;97613.25;;;13.53;100.00
52983;BME280;48698;45.736;13.926;2023-04-30T22:53:11;97593.16;;;13.33;100.00
52983;BME280;48698;45.736;13.926;2023-04-30T22:58:14;97551.81;;;12.83;100.00
52983;BME280;48698;45.736;13.926;2023-04-30T23:03:17;97656.44;;;13.31;100.00
52983;BME280;48698;45.736;13.926;2023-04-30T23:08:20;97598.06;;;12.68;100.00
52983;BME280;48698;45.736;13.926;2023-04-30T23:13:23;97350.97;;;11.57;100.00
52983;BME280;48698;45.736;13.926;2023-04-30T23:18:26;97448.69;;;11.99;100.00
52983;BME280;48698;45.736;13.926;2023-04-30T23:23:30;97503.59;;;12.16;100.00
52983;BME280;48698;45.736;13.926;2023-04-30T23:28:33;97636.94;;;13.01;100.00
52983;BME280;48698;45.736;13.926;2023-04-30T23:33:49;97561.50;;;12.70;100.00
52983;BME280;48698;45.736;13.926;2023-04-30T23:38:52;97624.53;;;12.85;100.00
52983;BME280;48698;45.736;13.926;2023-04-30T23:44:05;97558.84;;;12.26;100.00
52983;BME280;48698;45.736;13.926;2023-04-30T23:49:18;97609.72;;;12.52;100.00
52983;BME280;48698;45.736;13.926;2023-04-30T23:54:22;97472.28;;;11.75;100.00
52983;BME280;48698;45.736;13.926;2023-04-30T23:59:25;97545.88;;;12.20;100.00
